Time;durP1;ratioP1;P1;durP2;ratioP2;P2;SDS_P1;SDS_P2;PMS_P1;PMS_P2;Temp;Humidity;BMP_temperature;BMP_pressure;BME280_temperature;BME280_humidity;BME280_pressure;Samples;Min_cycle;Max_cycle;Signal;HPM_P1;HPM_P2
2024/01/11 00:01:13;;;;;;;50.05;24.15;;;;;;;-3.31;100.00;101676.84;5039142;28;20060;-70
2024/01/11 00:03:43;;;;;;;55.05;24.17;;;;;;;-3.26;100.00;101693.38;5010119;28;20045;-68
2024/01/11 00:06:12;;;;;;;53.53;24.67;;;;;;;-3.20;100.00;101696.16;5039686;28;20052;-70
2024/01/11 00:08:40;;;;;;;56.22;25.55;;;;;;;-3.29;100.00;101690.69;5027475;28;20056;-70
2024/01/11 00:11:08;;;;;;;53.60;25.30;;;;;;;-3.30;100.00;101699.28;5045184;28;20421;-70
2024/01/11 00:13:38;;;;;;;53.25;25.00;;;;;;;-3.38;100.00;101700.78;5034190;28;20136;-71
2024/01/11 00:16:09;;;;;;;52.25;24.08;;;;;;;-3.36;100.00;101712.06;5040990;28;20043;-71
2024/01/11 00:18:37;;;;;;;55.60;25.98;;;;;;;-3.40;100.00;101707.63;5050549;28;20522;-71
2024/01/11 00:21:06;;;;;;;49.95;23.60;;;;;;;-3.45;100.00;101700.53;5036261;28;20043;-71
2024/01/11 00:23:36;;;;;;;52.47;25.77;;;;;;;-3.36;100.00;101714.66;5045200;28;20029;-71
2024/01/11 00:26:05;;;;;;;53.97;24.50;;;;;;;-3.37;100.00;101699.97;5019237;28;20049;-72
2024/01/11 00:28:33;;;;;;;54.60;25.15;;;;;;;-3.34;100.00;101713.00;5053998;28;20052;-71
2024/01/11 00:31:03;;;;;;;53.17;24.67;;;;;;;-3.35;100.00;101698.31;5032295;28;20057;-70
2024/01/11 00:33:31;;;;;;;53.25;24.05;;;;;;;-3.34;100.00;101707.84;5029409;28;20053;-71
2024/01/11 00:35:59;;;;;;;49.45;24.05;;;;;;;-3.38;100.00;101705.97;5032748;28;20054;-69
2024/01/11 00:38:27;;;;;;;55.92;24.58;;;;;;;-3.38;100.00;101705.09;5004815;28;20065;-69
2024/01/11 00:40:58;;;;;;;54.65;25.35;;;;;;;-3.39;100.00;101706.81;5031156;28;20052;-70
2024/01/11 00:43:28;;;;;;;51.35;24.08;;;;;;;-3.39;100.00;101709.38;5035505;28;20034;-71
2024/01/11 00:45:56;;;;;;;54.90;25.20;;;;;;;-3.38;100.00;101713.75;5005805;28;20076;-70
2024/01/11 00:48:25;;;;;;;48.40;24.23;;;;;;;-3.40;100.00;101712.81;5046477;28;20034;-71
2024/01/11 00:50:54;;;;;;;51.63;25.35;;;;;;;-3.42;100.00;101713.59;5039709;28;20048;-71
2024/01/11 00:53:22;;;;;;;57.05;24.92;;;;;;;-3.47;100.00;101713.47;5001316;28;20497;-70
2024/01/11 00:55:53;;;;;;;53.25;24.52;;;;;;;-3.48;100.00;101716.00;5017520;28;20575;-71
2024/01/11 00:58:24;;;;;;;53.72;24.73;;;;;;;-3.50;100.00;101721.13;5038238;28;20094;-71
2024/01/11 01:00:53;;;;;;;52.20;23.60;;;;;;;-3.50;100.00;101726.31;5037341;28;20048;-70
2024/01/11 01:03:27;;;;;;;53.80;24.65;;;;;;;-3.55;100.00;101720.09;5024879;28;20068;-71
2024/01/11 01:05:57;;;;;;;54.47;24.65;;;;;;;-3.57;100.00;101729.53;5014889;28;20052;-70
2024/01/11 01:08:30;;;;;;;55.13;24.50;;;;;;;-3.52;100.00;101727.97;5034819;28;20821;-70
2024/01/11 01:10:59;;;;;;;54.90;24.40;;;;;;;-3.56;100.00;101728.72;5045490;28;20069;-69
2024/01/11 01:13:30;;;;;;;58.03;25.92;;;;;;;-3.63;100.00;101721.59;5022575;28;20059;-73
2024/01/11 01:16:04;;;;;;;52.30;24.45;;;;;;;-3.63;100.00;101729.34;5031046;28;20160;-71
2024/01/11 01:18:36;;;;;;;48.70;23.08;;;;;;;-3.65;100.00;101736.19;5026604;28;20042;-70
2024/01/11 01:21:06;;;;;;;55.17;25.38;;;;;;;-3.62;100.00;101720.75;5029106;28;20045;-70
2024/01/11 01:23:39;;;;;;;50.40;24.30;;;;;;;-3.55;100.00;101728.75;5024126;28;20409;-70
2024/01/11 01:26:09;;;;;;;56.70;24.25;;;;;;;-3.58;100.00;101717.41;5016821;28;20479;-70
2024/01/11 01:28:41;;;;;;;56.83;24.45;;;;;;;-3.61;100.00;101718.19;5028240;28;20418;-69
2024/01/11 01:31:09;;;;;;;48.50;23.42;;;;;;;-3.63;100.00;101722.47;5020647;28;20506;-72
2024/01/11 01:33:39;;;;;;;58.67;25.75;;;;;;;-3.59;100.00;101719.13;5031922;28;20687;-70
2024/01/11 01:36:09;;;;;;;54.28;24.48;;;;;;;-3.64;100.00;101722.41;4999201;28;20040;-72
2024/01/11 01:38:38;;;;;;;51.28;24.15;;;;;;;-3.69;100.00;101721.38;4999117;28;20471;-68
2024/01/11 01:41:07;;;;;;;50.80;23.13;;;;;;;-3.75;100.00;101723.75;5021650;28;20124;-71
2024/01/11 01:43:39;;;;;;;52.17;24.27;;;;;;;-3.75;100.00;101719.47;5029990;28;20103;-71
2024/01/11 01:46:14;;;;;;;48.50;23.80;;;;;;;-3.76;100.00;101737.53;5021343;28;20057;-72
2024/01/11 01:48:43;;;;;;;54.85;25.00;;;;;;;-3.79;100.00;101738.34;5042514;28;20406;-69
2024/01/11 01:51:11;;;;;;;48.35;24.58;;;;;;;-3.78;100.00;101728.88;5038314;28;20042;-70
2024/01/11 01:53:40;;;;;;;51.13;24.75;;;;;;;-3.78;100.00;101728.88;5016390;28;20568;-71
2024/01/11 01:56:11;;;;;;;58.05;23.73;;;;;;;-3.75;100.00;101742.75;5017198;28;20164;-70
2024/01/11 01:58:41;;;;;;;54.70;24.75;;;;;;;-3.73;100.00;101742.81;5022321;28;20057;-70
2024/01/11 02:01:11;;;;;;;55.30;25.10;;;;;;;-3.88;100.00;101731.13;5043811;28;20057;-70
2024/01/11 02:03:42;;;;;;;54.58;25.23;;;;;;;-3.86;100.00;101741.53;5023490;28;20057;-69
2024/01/11 02:06:15;;;;;;;53.72;24.88;;;;;;;-3.85;100.00;101740.72;5006848;28;20061;-70
2024/01/11 02:08:45;;;;;;;58.25;25.80;;;;;;;-3.94;100.00;101728.38;5002182;28;20240;-73
2024/01/11 02:11:17;;;;;;;58.80;26.00;;;;;;;-3.84;100.00;101739.91;5028840;28;20510;-70
2024/01/11 02:13:49;;;;;;;51.75;24.85;;;;;;;-3.80;100.00;101741.75;4994919;28;20052;-70
2024/01/11 02:16:21;;;;;;;60.47;25.17;;;;;;;-3.86;100.00;101736.38;5017614;28;20049;-70
2024/01/11 02:18:49;;;;;;;54.05;25.42;;;;;;;-3.90;100.00;101729.31;5044904;28;20053;-70
2024/01/11 02:21:18;;;;;;;56.53;25.17;;;;;;;-3.91;100.00;101733.63;5028346;28;20048;-71
2024/01/11 02:23:58;;;;;;;58.83;25.75;;;;;;;-3.81;100.00;101736.53;5037091;28;20053;-72
2024/01/11 02:26:30;;;;;;;50.30;24.58;;;;;;;-3.94;100.00;101730.97;5032536;28;20119;-70
2024/01/11 02:28:59;;;;;;;55.55;25.35;;;;;;;-3.92;100.00;101737.03;5021603;28;20041;-70
2024/01/11 02:31:28;;;;;;;56.58;25.52;;;;;;;-3.97;100.00;101732.56;5022665;28;20566;-70
2024/01/11 02:33:57;;;;;;;55.38;25.38;;;;;;;-3.99;100.00;101732.50;5027998;28;20072;-70
2024/01/11 02:36:27;;;;;;;55.13;25.38;;;;;;;-4.03;100.00;101735.81;5028488;28;20150;-70
2024/01/11 02:38:57;;;;;;;53.22;25.33;;;;;;;-3.96;100.00;101740.38;5029216;28;20065;-70
2024/01/11 02:41:26;;;;;;;57.20;25.45;;;;;;;-4.03;100.00;101742.69;5047113;28;20060;-70
2024/01/11 02:43:55;;;;;;;53.35;24.35;;;;;;;-3.97;100.00;101748.09;5022814;28;20034;-70
2024/01/11 02:46:25;;;;;;;44.97;20.42;;;;;;;-3.94;100.00;101738.72;5020153;28;20556;-71
2024/01/11 02:48:54;;;;;;;55.22;25.13;;;;;;;-3.98;100.00;101734.28;5026965;28;20045;-71
2024/01/11 02:51:25;;;;;;;53.05;24.77;;;;;;;-3.92;100.00;101739.63;5030979;28;20521;-71
2024/01/11 02:53:54;;;;;;;56.83;25.20;;;;;;;-3.95;100.00;101733.50;5026641;28;20248;-72
2024/01/11 02:56:28;;;;;;;57.53;25.80;;;;;;;-3.93;100.00;101742.16;5030605;28;20038;-69
2024/01/11 02:58:59;;;;;;;56.13;24.50;;;;;;;-3.92;100.00;101739.63;5032307;28;20041;-70
2024/01/11 03:01:30;;;;;;;58.33;24.30;;;;;;;-3.90;100.00;101730.22;5031132;28;20068;-71
2024/01/11 03:04:02;;;;;;;55.10;25.90;;;;;;;-3.93;100.00;101729.22;5015168;28;20143;-70
2024/01/11 03:06:30;;;;;;;58.53;26.40;;;;;;;-3.95;100.00;101733.50;5032487;28;20113;-71
2024/01/11 03:08:58;;;;;;;55.53;25.30;;;;;;;-4.01;100.00;101723.81;5045717;28;20119;-70
2024/01/11 03:11:30;;;;;;;53.77;25.23;;;;;;;-3.96;100.00;101732.63;5044431;28;20804;-70
2024/01/11 03:14:01;;;;;;;60.42;26.88;;;;;;;-3.98;100.00;101723.91;5040490;28;20774;-70
2024/01/11 03:16:29;;;;;;;53.70;24.38;;;;;;;-4.01;100.00;101717.75;5023750;28;20139;-69
2024/01/11 03:18:57;;;;;;;57.85;26.00;;;;;;;-4.06;100.00;101709.84;5029231;28;20038;-71
2024/01/11 03:21:30;;;;;;;63.97;25.83;;;;;;;-4.03;100.00;101714.22;5031034;28;20420;-70
2024/01/11 03:24:00;;;;;;;57.15;25.80;;;;;;;-4.07;100.00;101714.94;5029031;28;20048;-71
2024/01/11 03:26:32;;;;;;;54.10;25.45;;;;;;;-4.09;100.00;101721.81;5021753;28;20061;-69
2024/01/11 03:29:01;;;;;;;58.50;26.17;;;;;;;-4.17;100.00;101707.72;5047412;28;20057;-69
2024/01/11 03:31:29;;;;;;;54.72;24.85;;;;;;;-4.16;100.00;101707.78;5014289;28;20042;-71
2024/01/11 03:33:57;;;;;;;59.38;26.52;;;;;;;-4.27;100.00;101694.50;5044102;28;20417;-72
2024/01/11 03:36:26;;;;;;;58.50;26.65;;;;;;;-4.30;100.00;101686.63;5028719;28;20562;-71
2024/01/11 03:38:57;;;;;;;59.85;25.88;;;;;;;-4.18;100.00;101705.97;5017516;28;20049;-70
2024/01/11 03:41:26;;;;;;;55.80;25.13;;;;;;;-4.17;100.00;101718.94;5037192;28;20096;-71
2024/01/11 03:43:59;;;;;;;61.10;26.55;;;;;;;-4.19;100.00;101709.38;5046018;28;20069;-70
2024/01/11 03:46:28;;;;;;;61.75;27.13;;;;;;;-4.18;100.00;101724.94;5032869;28;20701;-71
2024/01/11 03:48:56;;;;;;;54.60;26.30;;;;;;;-4.25;100.00;101728.19;5011739;28;20053;-70
2024/01/11 03:51:24;;;;;;;59.67;27.05;;;;;;;-4.16;100.00;101719.84;5035090;28;20461;-70
2024/01/11 03:53:52;;;;;;;59.53;26.25;;;;;;;-4.22;100.00;101712.75;5027396;28;20118;-69
2024/01/11 03:56:21;;;;;;;56.35;26.90;;;;;;;-4.16;100.00;101722.41;5020380;28;20037;-68
2024/01/11 03:58:49;;;;;;;57.75;27.05;;;;;;;-4.24;100.00;101715.25;5035380;28;20045;-71
2024/01/11 04:01:26;;;;;;;62.42;26.90;;;;;;;-4.16;100.00;101720.72;5040073;28;20104;-71
2024/01/11 04:03:55;;;;;;;58.58;26.30;;;;;;;-4.17;100.00;101721.53;5049783;28;20409;-70
2024/01/11 04:06:26;;;;;;;59.33;26.40;;;;;;;-4.19;100.00;101715.44;5004810;28;20053;-70
2024/01/11 04:08:54;;;;;;;60.20;27.35;;;;;;;-4.08;100.00;101723.53;5038974;28;20498;-70
2024/01/11 04:11:29;;;;;;;61.00;27.55;;;;;;;-4.16;100.00;101719.84;5029746;28;20068;-69
2024/01/11 04:14:00;;;;;;;64.63;28.00;;;;;;;-4.17;100.00;101729.28;5042796;28;20049;-69
2024/01/11 04:16:30;;;;;;;62.22;27.38;;;;;;;-4.23;100.00;101729.06;5020121;28;20056;-69
2024/01/11 04:18:59;;;;;;;67.15;28.48;;;;;;;-4.32;100.00;101719.31;5029706;28;20049;-70
2024/01/11 04:21:28;;;;;;;62.22;28.00;;;;;;;-4.26;100.00;101731.59;5026788;28;20145;-70
2024/01/11 04:23:58;;;;;;;;;;;;;;;-4.27;100.00;101730.72;5005716;28;20033;-70
2024/01/11 04:26:27;;;;;;;63.45;27.33;;;;;;;-4.30;100.00;101740.06;5023488;28;19932;-70
2024/01/11 04:28:59;;;;;;;68.25;29.33;;;;;;;-4.29;100.00;101742.69;5043347;28;20142;-70
2024/01/11 04:31:28;;;;;;;65.50;27.92;;;;;;;-4.34;100.00;101727.84;5013079;28;20120;-70
2024/01/11 04:34:00;;;;;;;62.08;28.33;;;;;;;-4.40;100.00;101727.63;5029741;28;20099;-71
2024/01/11 04:36:30;;;;;;;70.20;29.42;;;;;;;-4.37;100.00;101740.66;5038163;28;20049;-70
2024/01/11 04:39:02;;;;;;;65.15;29.33;;;;;;;-4.43;100.00;101737.88;5041109;28;20048;-70
2024/01/11 04:41:34;;;;;;;71.78;30.15;;;;;;;-4.45;100.00;101742.13;5028648;28;20034;-71
2024/01/11 04:44:02;;;;;;;65.82;29.27;;;;;;;-4.51;100.00;101744.47;5027871;28;20087;-72
2024/01/11 04:46:30;;;;;;;65.85;29.65;;;;;;;-4.54;100.00;101741.78;5007276;28;20071;-69
2024/01/11 04:49:01;;;;;;;66.82;29.77;;;;;;;-4.56;100.00;101730.53;5026629;28;20247;-71
2024/01/11 04:51:29;;;;;;;53.08;23.45;;;;;;;-4.50;100.00;101751.41;5045129;28;20072;-71
2024/01/11 04:53:58;;;;;;;68.65;30.65;;;;;;;-4.49;100.00;101748.00;5037041;28;20042;-71
2024/01/11 04:56:26;;;;;;;72.03;29.95;;;;;;;-4.47;100.00;101748.94;5033788;28;20045;-70
2024/01/11 04:58:54;;;;;;;67.68;29.65;;;;;;;-4.47;100.00;101749.81;5040931;28;20049;-71
2024/01/11 05:01:24;;;;;;;71.80;30.13;;;;;;;-4.55;100.00;101737.41;5026518;28;20065;-71
2024/01/11 05:03:56;;;;;;;67.85;29.58;;;;;;;-4.56;100.00;101740.88;5024367;28;20140;-69
2024/01/11 05:06:27;;;;;;;71.47;31.45;;;;;;;-4.51;100.00;101737.59;5022808;28;20079;-70
2024/01/11 05:08:56;;;;;;;71.80;32.05;;;;;;;-4.55;100.00;101740.88;4999732;28;20060;-70
2024/01/11 05:11:26;;;;;;;69.18;30.48;;;;;;;-4.58;100.00;101756.31;5013528;28;20053;-68
2024/01/11 05:13:56;;;;;;;69.40;30.30;;;;;;;-4.59;100.00;101751.97;5022754;28;20054;-70
2024/01/11 05:16:26;;;;;;;68.95;31.20;;;;;;;-4.57;100.00;101754.63;5025406;28;20153;-72
2024/01/11 05:18:55;;;;;;;66.60;29.90;;;;;;;-4.60;100.00;101748.50;5042842;28;20166;-70
2024/01/11 05:21:26;;;;;;;54.13;24.27;;;;;;;-4.65;100.00;101747.44;5029817;28;20144;-70
2024/01/11 05:23:55;;;;;;;68.63;29.50;;;;;;;-4.69;100.00;101737.81;5029303;28;20101;-71
2024/01/11 05:26:26;;;;;;;67.25;29.50;;;;;;;-4.63;100.00;101742.34;5035564;28;20053;-70
2024/01/11 05:28:56;;;;;;;72.22;29.90;;;;;;;-4.57;100.00;101739.09;5026870;28;20033;-70
2024/01/11 05:31:24;;;;;;;66.28;30.95;;;;;;;-4.57;100.00;101749.44;5040846;28;20067;-70
2024/01/11 05:33:55;;;;;;;69.47;29.60;;;;;;;-4.57;100.00;101752.03;5028064;28;20048;-70
2024/01/11 05:36:24;;;;;;;69.55;30.33;;;;;;;-4.61;100.00;101759.66;5025726;28;20915;-70
2024/01/11 05:38:54;;;;;;;67.72;28.92;;;;;;;-4.68;100.00;101754.19;5034421;28;20518;-70
2024/01/11 05:41:23;;;;;;;63.10;30.08;;;;;;;-4.75;100.00;101753.13;5045094;28;20164;-70
2024/01/11 05:43:51;;;;;;;68.10;28.92;;;;;;;-4.77;100.00;101749.59;5023702;28;20399;-69
2024/01/11 05:46:20;;;;;;;66.38;28.83;;;;;;;-4.73;100.00;101761.81;5035229;28;20097;-70
2024/01/11 05:48:50;;;;;;;68.95;28.67;;;;;;;-4.70;100.00;101776.53;5021280;28;20065;-69
2024/01/11 05:51:23;;;;;;;68.65;28.52;;;;;;;-4.72;100.00;101773.03;5023323;28;20436;-70
2024/01/11 05:53:51;;;;;;;71.95;30.38;;;;;;;-4.72;100.00;101779.03;5044438;28;20068;-70
2024/01/11 05:56:23;;;;;;;68.43;29.52;;;;;;;-4.71;100.00;101770.47;5036573;28;20382;-69
2024/01/11 05:58:54;;;;;;;65.57;28.65;;;;;;;-4.70;100.00;101779.97;5019851;28;20542;-70
2024/01/11 06:01:25;;;;;;;65.80;29.50;;;;;;;-4.71;100.00;101782.50;5031112;28;20084;-69
2024/01/11 06:03:54;;;;;;;66.47;30.05;;;;;;;-4.85;100.00;101771.66;5033907;28;20132;-71
2024/01/11 06:06:23;;;;;;;68.70;29.90;;;;;;;-4.71;100.00;101796.31;5024965;28;20042;-72
2024/01/11 06:08:51;;;;;;;69.25;29.92;;;;;;;-4.72;100.00;101802.31;5036193;28;20583;-68
2024/01/11 06:11:19;;;;;;;66.90;29.58;;;;;;;-4.76;100.00;101797.88;5029430;28;20048;-70
2024/01/11 06:13:48;;;;;;;65.25;30.80;;;;;;;-4.82;100.00;101807.09;5044530;28;20537;-71
2024/01/11 06:16:18;;;;;;;71.63;29.80;;;;;;;-4.74;100.00;101811.72;5042675;28;20038;-68
2024/01/11 06:18:47;;;;;;;64.68;29.98;;;;;;;-4.79;100.00;101818.41;5019051;28;20060;-71
2024/01/11 06:21:17;;;;;;;69.45;30.20;;;;;;;-4.72;100.00;101802.31;5044556;28;20498;-70
2024/01/11 06:23:46;;;;;;;70.57;30.80;;;;;;;-4.72;100.00;101817.81;5043541;28;20046;-71
2024/01/11 06:26:17;;;;;;;71.25;32.00;;;;;;;-4.74;100.00;101832.41;5027479;28;20216;-71
2024/01/11 06:28:49;;;;;;;68.28;30.83;;;;;;;-4.78;100.00;101838.28;5019651;28;20049;-70
2024/01/11 06:31:17;;;;;;;69.57;28.98;;;;;;;-4.82;100.00;101836.38;5035272;28;20710;-70
2024/01/11 06:33:46;;;;;;;71.18;31.00;;;;;;;-4.75;100.00;101838.41;5022023;28;20049;-70
2024/01/11 06:36:19;;;;;;;67.00;29.92;;;;;;;-4.76;100.00;101833.16;5033212;28;20616;-70
2024/01/11 06:38:50;;;;;;;73.72;30.73;;;;;;;-4.80;100.00;101837.34;5021515;28;20467;-70
2024/01/11 06:41:19;;;;;;;71.15;31.25;;;;;;;-4.80;100.00;101832.16;5027955;28;20052;-69
2024/01/11 06:43:48;;;;;;;68.40;30.92;;;;;;;-4.81;100.00;101840.72;5041936;28;20512;-70
2024/01/11 06:46:22;;;;;;;54.70;24.27;;;;;;;-4.81;100.00;101845.03;5042647;28;20144;-70
2024/01/11 06:48:53;;;;;;;75.40;31.80;;;;;;;-4.80;100.00;101847.66;5023146;28;20088;-69
2024/01/11 06:51:23;;;;;;;72.40;31.27;;;;;;;-4.78;100.00;101851.19;5025097;28;20488;-70
2024/01/11 06:53:51;;;;;;;70.65;31.98;;;;;;;-4.88;100.00;101843.03;5026359;28;20053;-70
2024/01/11 06:56:21;;;;;;;71.50;32.13;;;;;;;-4.88;100.00;101849.09;5040121;28;20041;-70
2024/01/11 06:58:53;;;;;;;70.63;31.60;;;;;;;-4.85;100.00;101849.19;5031818;28;20064;-70
2024/01/11 07:01:23;;;;;;;73.13;31.27;;;;;;;-4.88;100.00;101843.03;5022552;28;20434;-70
2024/01/11 07:03:51;;;;;;;71.25;31.75;;;;;;;-4.89;100.00;101847.31;5026902;28;20064;-70
2024/01/11 07:06:20;;;;;;;74.00;32.80;;;;;;;-4.88;100.00;101853.38;5024972;28;20052;-71
2024/01/11 07:08:50;;;;;;;74.72;33.25;;;;;;;-4.95;100.00;101847.06;5038737;28;20056;-70
2024/01/11 07:11:19;;;;;;;68.18;27.33;;;;;;;-4.95;100.00;101841.91;5027533;28;20212;-68
2024/01/11 07:13:47;;;;;;;77.70;33.30;;;;;;;-4.87;100.00;101855.09;5030236;28;20128;-70
2024/01/11 07:16:20;;;;;;;78.50;33.00;;;;;;;-4.89;100.00;101852.50;5025013;28;20506;-70
2024/01/11 07:18:48;;;;;;;74.00;33.13;;;;;;;-4.90;100.00;101858.47;5039701;28;20081;-71
2024/01/11 07:21:29;;;;;;;75.10;33.97;;;;;;;-4.90;100.00;101861.06;5026038;28;20662;-69
2024/01/11 07:23:57;;;;;;;61.92;26.73;;;;;;;-4.85;100.00;101856.94;5038381;28;20087;-69
2024/01/11 07:26:26;;;;;;;75.43;33.30;;;;;;;-4.91;100.00;101854.13;5040037;28;20057;-70
2024/01/11 07:28:55;;;;;;;73.88;33.08;;;;;;;-4.93;100.00;101849.72;5020391;28;20045;-70
2024/01/11 07:31:26;;;;;;;73.78;33.53;;;;;;;-4.92;100.00;101852.38;5028938;28;20053;-69
2024/01/11 07:33:56;;;;;;;80.10;33.25;;;;;;;-4.90;100.00;101863.66;5037971;28;20099;-69
2024/01/11 07:36:27;;;;;;;79.75;33.70;;;;;;;-4.94;100.00;101861.75;5026695;28;20052;-70
2024/01/11 07:38:55;;;;;;;75.33;34.73;;;;;;;-4.95;100.00;101862.56;5038893;28;20046;-69
2024/01/11 07:41:26;;;;;;;74.32;33.17;;;;;;;-4.88;100.00;101867.19;5008211;28;20100;-70
2024/01/11 07:43:58;;;;;;;82.47;35.75;;;;;;;-4.90;100.00;101852.44;5031995;28;20049;-70
2024/01/11 07:46:28;;;;;;;75.18;33.92;;;;;;;-4.81;100.00;101852.78;5028055;28;20564;-67
2024/01/11 07:49:10;;;;;;;74.68;33.15;;;;;;;-4.78;100.00;101850.31;5026022;28;20052;-68
2024/01/11 07:51:38;;;;;;;79.25;33.95;;;;;;;-4.77;100.00;101854.66;5033345;28;20068;-69
2024/01/11 07:54:08;;;;;;;77.27;35.07;;;;;;;-4.79;100.00;101849.44;5022908;28;20071;-70
2024/01/11 07:56:38;;;;;;;81.03;35.10;;;;;;;-4.79;100.00;101849.44;5035516;28;20050;-70
2024/01/11 07:59:06;;;;;;;79.88;34.83;;;;;;;-4.77;100.00;101846.91;5027462;28;20091;-71
2024/01/11 08:01:36;;;;;;;83.53;35.60;;;;;;;-4.80;100.00;101847.66;5019129;28;20041;-68
2024/01/11 08:04:07;;;;;;;76.38;32.83;;;;;;;-4.75;100.00;101856.47;5022764;28;20129;-70
2024/01/11 08:06:37;;;;;;;79.45;34.45;;;;;;;-4.73;100.00;101844.50;5045714;28;20668;-70
2024/01/11 08:09:08;;;;;;;72.88;34.20;;;;;;;-4.72;100.00;101851.41;5006564;28;20479;-70
2024/01/11 08:11:37;;;;;;;78.03;34.40;;;;;;;-4.65;100.00;101857.69;5032829;28;20562;-70
2024/01/11 08:14:10;;;;;;;80.82;35.17;;;;;;;-4.58;100.00;101853.66;5028483;28;20559;-70
2024/01/11 08:16:39;;;;;;;74.20;33.67;;;;;;;-4.50;100.00;101849.63;5030914;28;20101;-70
2024/01/11 08:19:09;;;;;;;74.97;34.10;;;;;;;-4.49;100.00;101849.69;5030553;28;20053;-71
2024/01/11 08:21:38;;;;;;;78.30;35.38;;;;;;;-4.53;100.00;101858.16;5043940;28;20045;-69
2024/01/11 08:24:07;;;;;;;79.72;33.80;;;;;;;-4.48;100.00;101856.63;5045979;28;20041;-70
2024/01/11 08:26:35;;;;;;;74.72;33.88;;;;;;;-4.35;100.00;101857.97;5030442;28;20048;-70
2024/01/11 08:29:04;;;;;;;80.90;34.13;;;;;;;-4.35;100.00;101855.38;5023157;28;20049;-69
2024/01/11 08:31:34;;;;;;;63.78;27.52;;;;;;;-4.29;100.00;101853.03;5015813;28;20080;-70
2024/01/11 08:34:13;;;;;;;81.10;34.67;;;;;;;-4.25;100.00;101844.56;5024423;28;20100;-69
2024/01/11 08:36:42;;;;;;;79.57;36.22;;;;;;;-4.17;100.00;101853.47;5041982;28;20120;-71
2024/01/11 08:39:12;;;;;;;78.15;34.15;;;;;;;-4.13;100.00;101857.91;5021084;28;20041;-70
2024/01/11 08:41:41;;;;;;;;;;;;;;;-4.08;100.00;101868.41;5035947;28;20053;-70
2024/01/11 08:44:10;;;;;;;72.55;32.75;;;;;;;-4.03;100.00;101864.28;5044043;28;19925;-69
2024/01/11 08:46:38;;;;;;;77.40;33.90;;;;;;;-4.03;100.00;101875.53;5021220;28;20076;-70
2024/01/11 08:49:09;;;;;;;75.32;33.53;;;;;;;-3.91;100.00;101894.06;5025582;28;20624;-71
2024/01/11 08:51:41;;;;;;;69.38;32.75;;;;;;;-3.94;100.00;101883.63;5024120;28;20478;-71
2024/01/11 08:54:11;;;;;;;73.22;32.80;;;;;;;-3.80;100.00;101906.53;5034568;28;20038;-70
2024/01/11 08:56:40;;;;;;;70.53;32.20;;;;;;;-3.87;100.00;101910.59;5032238;28;20068;-72
2024/01/11 08:59:09;;;;;;;73.28;31.90;;;;;;;-3.94;100.00;101888.81;5013217;28;20108;-69
2024/01/11 09:01:38;;;;;;;75.18;31.95;;;;;;;-3.84;100.00;101909.81;5019291;28;20044;-70
2024/01/11 09:04:08;;;;;;;72.50;32.38;;;;;;;-3.83;100.00;101890.88;5029088;28;20095;-69
2024/01/11 09:06:36;;;;;;;71.43;32.17;;;;;;;-3.78;100.00;101889.34;5029648;28;20413;-70
2024/01/11 09:09:09;;;;;;;68.35;32.88;;;;;;;-3.69;100.00;101895.72;5020382;28;20068;-71
2024/01/11 09:11:37;;;;;;;70.95;32.88;;;;;;;-3.63;100.00;101889.88;5035621;28;20046;-71
2024/01/11 09:14:10;;;;;;;70.75;32.00;;;;;;;-3.58;100.00;101880.53;5015981;28;20072;-70
2024/01/11 09:16:39;;;;;;;75.50;32.10;;;;;;;-3.44;100.00;101892.22;5039846;28;20410;-69
2024/01/11 09:19:07;;;;;;;70.30;31.98;;;;;;;-3.45;100.00;101869.75;5018301;28;20058;-72
2024/01/11 09:21:35;;;;;;;67.32;31.42;;;;;;;-3.27;100.00;101880.72;5023168;28;20427;-70
2024/01/11 09:24:06;;;;;;;64.22;30.88;;;;;;;-3.26;100.00;101860.88;5026012;28;20047;-70
2024/01/11 09:26:36;;;;;;;69.22;32.55;;;;;;;-3.17;100.00;101868.09;5006615;28;20046;-68
2024/01/11 09:29:03;;;;;;;62.33;31.08;;;;;;;-3.01;100.00;101875.50;5022065;28;20050;-70
2024/01/11 09:31:33;;;;;;;71.10;31.35;;;;;;;-2.99;100.00;101868.66;5023094;28;20076;-72
2024/01/11 09:34:01;;;;;;;65.95;31.13;;;;;;;-2.94;100.00;101877.44;5026639;28;20045;-71
2024/01/11 09:36:30;;;;;;;66.97;31.95;;;;;;;-2.86;100.00;101883.78;5042922;28;20084;-69
2024/01/11 09:38:59;;;;;;;69.93;31.80;;;;;;;-2.77;100.00;101883.16;5006613;28;20041;-70
2024/01/11 09:41:31;;;;;;;71.93;32.22;;;;;;;-2.65;100.00;101904.28;5035110;28;20095;-72
2024/01/11 09:44:04;;;;;;;68.45;31.67;;;;;;;-2.57;100.00;101905.41;5047870;28;20111;-72
2024/01/11 09:46:35;;;;;;;68.13;30.45;;;;;;;-2.60;100.00;101888.03;5029486;28;20053;-69
2024/01/11 09:49:04;;;;;;;69.78;31.45;;;;;;;-2.56;100.00;101897.66;5019759;28;20161;-70
2024/01/11 09:51:35;;;;;;;61.03;28.85;;;;;;;-2.67;100.00;101883.47;5028886;28;20566;-71
2024/01/11 09:54:04;;;;;;;;;;;;;;;-2.53;100.00;101908.13;5041183;28;20077;-71
2024/01/11 09:56:35;;;;;;;67.13;30.17;;;;;;;-2.71;99.99;101875.59;5045640;28;20016;-70
2024/01/11 09:59:07;;;;;;;66.43;30.45;;;;;;;-2.48;100.00;101905.66;5019722;28;20045;-69
2024/01/11 10:01:36;;;;;;;66.28;30.88;;;;;;;-2.48;99.47;101908.25;5027213;28;20426;-71
2024/01/11 10:04:08;;;;;;;65.72;30.42;;;;;;;-2.42;98.34;101907.56;5029099;28;20083;-71
2024/01/11 10:06:39;;;;;;;56.53;27.05;;;;;;;-2.39;98.70;101912.84;5038564;28;20048;-71
2024/01/11 10:09:08;;;;;;;63.97;30.85;;;;;;;-2.31;99.44;101919.13;5029563;28;20049;-69
2024/01/11 10:11:41;;;;;;;71.43;31.20;;;;;;;-2.29;98.04;101905.38;5038195;28;20049;-71
2024/01/11 10:14:13;;;;;;;62.75;30.52;;;;;;;-2.17;96.87;101894.47;5027898;28;20125;-72
2024/01/11 10:16:45;;;;;;;66.13;31.20;;;;;;;-2.06;96.50;101893.06;5024086;28;20041;-72
2024/01/11 10:19:16;;;;;;;67.88;30.95;;;;;;;-2.02;95.56;101884.50;5019036;28;20045;-72
2024/01/11 10:21:45;;;;;;;65.95;31.27;;;;;;;-1.95;94.08;101880.38;5028220;28;20045;-70
2024/01/11 10:24:20;;;;;;;64.97;31.60;;;;;;;-1.91;94.06;101882.25;5024380;28;20132;-72
2024/01/11 10:26:53;;;;;;;61.88;29.40;;;;;;;-1.84;93.79;101879.84;5027600;28;20446;-69
2024/01/11 10:29:23;;;;;;;66.30;31.05;;;;;;;-1.80;91.85;101871.28;5017477;28;20069;-69
2024/01/11 10:31:53;;;;;;;70.68;31.08;;;;;;;-1.78;91.37;101882.59;5030050;28;20052;-70
2024/01/11 10:34:25;;;;;;;65.90;31.40;;;;;;;-1.77;91.48;101873.97;5042430;28;20091;-71
2024/01/11 10:36:53;;;;;;;;;;;;;;;-1.71;91.52;101874.97;5040890;28;20045;-71
2024/01/11 10:39:25;;;;;;;65.43;28.42;;;;;;;-1.62;89.88;101883.00;5023338;28;20487;-69
2024/01/11 10:42:05;;;;;;;61.20;30.05;;;;;;;-1.58;88.33;101877.06;5028736;28;20041;-70
2024/01/11 10:44:36;;;;;;;61.15;29.63;;;;;;;-1.59;88.31;101872.72;5029177;28;20057;-72
2024/01/11 10:47:10;;;;;;;64.32;30.52;;;;;;;-1.54;87.95;101878.88;5021146;28;20054;-71
2024/01/11 10:49:43;;;;;;;62.42;30.08;;;;;;;-1.46;88.58;101864.38;5016950;28;20537;-70
2024/01/11 10:52:13;;;;;;;65.40;30.45;;;;;;;-1.44;86.71;101860.09;5017617;28;20049;-70
2024/01/11 10:54:43;;;;;;;49.03;23.35;;;;;;;-1.40;87.36;101864.50;5013846;28;20050;-70
2024/01/11 10:57:14;;;;;;;64.77;31.13;;;;;;;-1.38;87.67;101860.25;5026299;28;20038;-71
2024/01/11 10:59:49;;;;;;;62.42;30.38;;;;;;;-1.30;87.73;101866.53;5031953;28;20480;-71
2024/01/11 11:02:19;;;;;;;58.80;30.25;;;;;;;-1.28;87.29;101867.44;5030069;28;20125;-70
2024/01/11 11:04:49;;;;;;;64.28;30.38;;;;;;;-1.35;86.86;101839.53;5025197;28;20045;-70
2024/01/11 11:07:21;;;;;;;62.95;30.38;;;;;;;-1.21;86.88;101850.25;5027912;28;20041;-70
2024/01/11 11:09:56;;;;;;;64.85;30.95;;;;;;;-1.20;85.73;101847.69;5035243;28;20140;-69
2024/01/11 11:12:29;;;;;;;64.07;31.05;;;;;;;-1.19;86.97;101839.06;5030620;28;20084;-70
2024/01/11 11:15:01;;;;;;;56.80;29.88;;;;;;;-1.14;86.84;101849.56;5016932;28;20056;-69
2024/01/11 11:17:32;;;;;;;59.42;29.75;;;;;;;-1.07;86.33;101852.34;5032719;28;20037;-73